Time;durP1;ratioP1;P1;durP2;ratioP2;P2;SDS_P1;SDS_P2;PMS_P1;PMS_P2;Temp;Humidity;BMP_temperature;BMP_pressure;BME280_temperature;BME280_humidity;BME280_pressure;Samples;Min_cycle;Max_cycle;Signal;HPM_P1;HPM_P2
2023/03/26 00:01:04;;;;;;;9.80;3.83;;;14.30;95.00;;;;;;7394401;19;19919;-73
2023/03/26 00:03:32;;;;;;;8.65;2.97;;;14.30;95.30;;;;;;7386225;19;20267;-74
2023/03/26 00:06:14;;;;;;;11.10;2.80;;;14.20;95.30;;;;;;7389048;19;19911;-74
2023/03/26 00:08:43;;;;;;;10.18;2.45;;;14.10;95.10;;;;;;7374939;19;19970;-75
2023/03/26 00:11:12;;;;;;;8.40;2.30;;;14.10;95.30;;;;;;7401431;19;19915;-73
2023/03/26 00:13:40;;;;;;;7.53;2.60;;;14.10;95.30;;;;;;7400620;19;19926;-74
2023/03/26 00:16:06;;;;;;;6.80;2.65;;;14.00;95.50;;;;;;7402154;19;19974;-73
2023/03/26 00:18:33;;;;;;;10.75;2.83;;;13.90;96.10;;;;;;7402763;19;19907;-73
2023/03/26 00:21:04;;;;;;;8.35;2.95;;;13.90;96.40;;;;;;7401614;19;20381;-73
2023/03/26 00:23:31;;;;;;;9.45;2.78;;;13.90;96.50;;;;;;7401306;19;19915;-72
2023/03/26 00:25:57;;;;;;;10.85;2.72;;;13.80;96.70;;;;;;7400269;19;19919;-73
2023/03/26 00:28:23;;;;;;;9.32;3.20;;;13.70;97.00;;;;;;7400771;19;19932;-73
2023/03/26 00:30:56;;;;;;;12.15;3.38;;;13.70;97.20;;;;;;7399215;19;19950;-74
2023/03/26 00:33:22;;;;;;;11.07;3.05;;;13.80;97.20;;;;;;7400146;19;20385;-74
2023/03/26 00:35:57;;;;;;;9.93;2.92;;;13.80;97.20;;;;;;7397468;19;19915;-73
2023/03/26 00:38:24;;;;;;;9.75;3.15;;;13.80;97.20;;;;;;7399392;19;20018;-73
2023/03/26 00:40:55;;;;;;;12.40;3.55;;;13.80;97.40;;;;;;7400962;19;19918;-73
2023/03/26 00:43:22;;;;;;;8.98;3.42;;;13.80;97.70;;;;;;7400346;19;19992;-74
2023/03/26 00:45:53;;;;;;;10.35;3.13;;;13.80;98.10;;;;;;7402350;19;19926;-73
2023/03/26 00:48:21;;;;;;;10.27;3.05;;;13.70;98.40;;;;;;7367582;19;19918;-73
2023/03/26 00:50:48;;;;;;;12.48;3.00;;;13.60;98.40;;;;;;7400801;19;19915;-73
2023/03/26 00:53:15;;;;;;;9.68;2.67;;;13.70;98.40;;;;;;7378294;19;20362;-72
2023/03/26 00:55:43;;;;;;;10.75;3.03;;;13.60;98.50;;;;;;7400214;19;19914;-73
2023/03/26 00:58:09;;;;;;;11.73;3.75;;;13.60;99.40;;;;;;7400135;19;19919;-74
2023/03/26 01:00:41;;;;;;;10.65;3.40;;;13.60;99.70;;;;;;7401010;19;19911;-75
2023/03/26 01:03:13;;;;;;;7.70;3.10;;;13.50;99.90;;;;;;7395432;19;19914;-73
2023/03/26 01:05:57;;;;;;;8.93;2.95;;;13.50;99.90;;;;;;7401692;19;19915;-73
2023/03/26 01:08:53;;;;;;;11.05;2.83;;;13.40;99.90;;;;;;7395903;19;19915;-74
2023/03/26 01:11:19;;;;;;;11.40;2.70;;;13.30;99.90;;;;;;7401847;19;19919;-73
2023/03/26 01:13:53;;;;;;;14.02;2.78;;;13.30;99.90;;;;;;7405936;19;19922;-73
2023/03/26 01:16:35;;;;;;;10.38;2.70;;;13.30;99.90;;;;;;7404629;19;20014;-72
2023/03/26 01:19:04;;;;;;;10.45;2.78;;;13.30;99.90;;;;;;7408448;19;19922;-72
2023/03/26 01:21:30;;;;;;;13.27;3.20;;;13.20;99.90;;;;;;7404345;19;20015;-73
2023/03/26 01:24:01;;;;;;;10.90;3.58;;;13.20;99.90;;;;;;7405693;19;19974;-74
2023/03/26 01:26:40;;;;;;;9.25;2.80;;;13.20;99.90;;;;;;7406989;19;19921;-72
2023/03/26 01:29:17;;;;;;;10.20;2.58;;;13.20;99.90;;;;;;7405470;19;19934;-74
2023/03/26 01:32:08;;;;;;;8.88;3.20;;;13.30;99.90;;;;;;7409396;19;19923;-74
2023/03/26 01:34:42;;;;;;;12.70;3.70;;;13.30;99.90;;;;;;7403963;19;19911;-73
2023/03/26 01:37:45;;;;;;;12.73;3.50;;;13.30;99.90;;;;;;7406180;19;20276;-73
2023/03/26 01:40:37;;;;;;;14.10;3.50;;;13.30;99.90;;;;;;7405599;19;19919;-73
2023/03/26 01:43:38;;;;;;;11.50;3.05;;;13.30;99.90;;;;;;7401535;19;20434;-74
2023/03/26 01:46:10;;;;;;;13.38;3.53;;;13.30;99.90;;;;;;7403003;19;19922;-73
2023/03/26 01:48:41;;;;;;;8.70;3.13;;;13.30;99.90;;;;;;7405115;19;19926;-73
2023/03/26 01:51:08;;;;;;;7.95;2.65;;;13.20;99.90;;;;;;7400308;19;19990;-73
2023/03/26 01:53:41;;;;;;;10.77;3.10;;;13.20;99.90;;;;;;7408170;19;19911;-72
2023/03/26 01:56:25;;;;;;;11.70;2.97;;;13.20;99.90;;;;;;7386648;19;19923;-72
2023/03/26 01:59:02;;;;;;;11.02;3.38;;;13.20;99.90;;;;;;7406909;19;20557;-72
2023/03/26 02:01:44;;;;;;;11.98;3.25;;;13.10;99.90;;;;;;7382536;19;19914;-72
2023/03/26 02:04:20;;;;;;;10.13;2.95;;;13.10;99.90;;;;;;7403512;19;20304;-73
2023/03/26 02:07:06;;;;;;;9.35;3.03;;;13.20;99.90;;;;;;7402820;19;19910;-73
2023/03/26 02:09:37;;;;;;;10.77;3.25;;;13.10;99.90;;;;;;7400911;19;19973;-74
2023/03/26 02:12:05;;;;;;;12.52;3.35;;;13.10;99.90;;;;;;7406515;19;19919;-72
2023/03/26 02:14:31;;;;;;;12.65;3.15;;;13.10;99.90;;;;;;7406652;19;19977;-72
2023/03/26 02:16:59;;;;;;;8.23;3.05;;;13.10;99.90;;;;;;7375714;19;19938;-72
2023/03/26 02:19:26;;;;;;;12.63;3.45;;;13.00;99.90;;;;;;7404367;19;19926;-72
2023/03/26 02:21:58;;;;;;;11.30;3.00;;;13.00;99.90;;;;;;7404780;19;20022;-73
2023/03/26 02:24:24;;;;;;;9.35;2.80;;;13.00;99.90;;;;;;7398702;19;19923;-72
2023/03/26 02:26:50;;;;;;;9.70;2.80;;;13.00;99.90;;;;;;7407164;19;19914;-73
2023/03/26 02:29:19;;;;;;;12.02;3.30;;;13.00;99.90;;;;;;7404667;19;19922;-71
2023/03/26 02:31:49;;;;;;;10.73;3.45;;;12.90;99.90;;;;;;7399997;19;19915;-72
2023/03/26 02:34:15;;;;;;;9.63;3.42;;;12.90;99.90;;;;;;7403722;19;19930;-73
2023/03/26 02:36:44;;;;;;;10.23;3.40;;;12.80;99.90;;;;;;7406385;19;20797;-72
2023/03/26 02:39:10;;;;;;;12.02;3.75;;;12.80;99.90;;;;;;7402902;19;19915;-73
2023/03/26 02:41:37;;;;;;;10.32;2.90;;;12.80;99.90;;;;;;7401165;19;20251;-73
2023/03/26 02:44:04;;;;;;;11.73;3.10;;;12.70;99.90;;;;;;7376883;19;19946;-73
2023/03/26 02:46:32;;;;;;;14.27;3.83;;;12.70;99.90;;;;;;7407451;19;20010;-72
2023/03/26 02:48:58;;;;;;;15.65;3.97;;;12.90;99.90;;;;;;7404648;19;19911;-72
2023/03/26 02:51:26;;;;;;;15.25;3.67;;;12.90;99.90;;;;;;7402564;19;19930;-73
2023/03/26 02:53:52;;;;;;;11.93;3.70;;;12.80;99.90;;;;;;7402438;19;20247;-72
2023/03/26 02:56:18;;;;;;;10.88;3.25;;;12.70;99.90;;;;;;7401195;19;19925;-73
2023/03/26 02:58:45;;;;;;;8.18;3.03;;;12.80;99.90;;;;;;7400817;19;19915;-72
2023/03/26 03:01:12;;;;;;;9.00;3.00;;;12.90;99.90;;;;;;7404593;19;19943;-73
2023/03/26 03:03:38;;;;;;;6.82;2.45;;;12.90;99.90;;;;;;7406422;19;19919;-72
2023/03/26 03:06:04;;;;;;;6.53;2.15;;;12.90;99.90;;;;;;7401280;19;19925;-71
2023/03/26 03:08:30;;;;;;;9.20;2.50;;;13.10;99.90;;;;;;7402847;19;20008;-72
2023/03/26 03:11:00;;;;;;;5.78;2.60;;;13.10;99.90;;;;;;7404060;19;19935;-73
2023/03/26 03:13:27;;;;;;;9.88;3.08;;;13.10;99.90;;;;;;7401909;19;19914;-72
2023/03/26 03:15:54;;;;;;;9.80;3.25;;;12.90;99.90;;;;;;7405113;19;20292;-72
2023/03/26 03:18:20;;;;;;;11.30;3.67;;;12.80;99.90;;;;;;7403507;19;19922;-73
2023/03/26 03:20:46;;;;;;;9.25;3.33;;;12.70;99.90;;;;;;7403489;19;19925;-72
2023/03/26 03:23:12;;;;;;;11.25;3.45;;;12.70;99.90;;;;;;7367974;19;19921;-73
2023/03/26 03:25:40;;;;;;;9.75;3.30;;;12.70;99.90;;;;;;7405861;19;19922;-72
2023/03/26 03:28:07;;;;;;;8.95;2.92;;;12.60;99.90;;;;;;7402110;19;19919;-72
2023/03/26 03:30:33;;;;;;;9.73;3.40;;;12.70;99.90;;;;;;7404202;19;19925;-72
2023/03/26 03:33:01;;;;;;;12.48;3.70;;;12.70;99.90;;;;;;7402416;19;19919;-72
2023/03/26 03:35:28;;;;;;;9.70;3.35;;;12.60;99.90;;;;;;7397580;19;19946;-72
2023/03/26 03:37:58;;;;;;;11.55;3.20;;;12.60;99.90;;;;;;7404499;19;20264;-72
2023/03/26 03:40:25;;;;;;;10.90;3.40;;;12.70;99.90;;;;;;7403972;19;19923;-72
2023/03/26 03:42:50;;;;;;;8.73;2.80;;;12.70;99.90;;;;;;7399715;19;19921;-73
2023/03/26 03:45:17;;;;;;;9.32;2.72;;;12.80;99.90;;;;;;7399779;19;19926;-72
2023/03/26 03:47:43;;;;;;;9.57;3.10;;;12.80;99.90;;;;;;7397364;19;19914;-72
2023/03/26 03:50:10;;;;;;;8.55;2.42;;;13.00;99.90;;;;;;7400124;19;19985;-72
2023/03/26 03:52:36;;;;;;;7.65;2.25;;;13.10;99.90;;;;;;7404633;19;20314;-73
2023/03/26 03:55:01;;;;;;;9.38;2.33;;;13.20;99.90;;;;;;7402915;19;19919;-73
2023/03/26 03:57:28;;;;;;;4.75;2.10;;;13.50;99.20;;;;;;7403976;19;20011;-72
2023/03/26 03:59:57;;;;;;;8.35;2.53;;;14.40;96.90;;;;;;7404533;19;20299;-71
2023/03/26 04:02:29;;;;;;;5.85;2.28;;;14.60;96.10;;;;;;7400199;19;22191;-71
2023/03/26 04:04:56;;;;;;;7.00;2.97;;;14.70;95.50;;;;;;7397535;19;19914;-72
2023/03/26 04:07:24;;;;;;;7.32;2.40;;;15.10;94.90;;;;;;7400258;19;21262;-72
2023/03/26 04:09:50;;;;;;;7.25;3.25;;;15.20;94.50;;;;;;7401574;19;19934;-73
2023/03/26 04:12:17;;;;;;;5.45;2.50;;;15.40;94.20;;;;;;7368080;19;19935;-72
2023/03/26 04:14:43;;;;;;;7.30;2.30;;;15.40;93.70;;;;;;7397694;19;20279;-73
2023/03/26 04:17:09;;;;;;;6.82;2.28;;;15.50;93.60;;;;;;7398177;19;19918;-71
2023/03/26 04:19:36;;;;;;;6.75;2.20;;;15.50;93.70;;;;;;7401313;19;19918;-73
2023/03/26 04:22:01;;;;;;;;;;;15.40;93.70;;;;;;7403739;19;19911;-73
2023/03/26 04:24:32;;;;;;;6.30;2.33;;;15.70;93.30;;;;;;7399170;19;19915;-72
2023/03/26 04:27:03;;;;;;;9.48;2.70;;;15.70;93.20;;;;;;7398317;19;19915;-72
2023/03/26 04:29:33;;;;;;;5.28;2.38;;;15.70;93.10;;;;;;7399224;19;19919;-71
2023/03/26 04:32:05;;;;;;;9.18;2.92;;;15.80;93.10;;;;;;7378746;19;20277;-72
2023/03/26 04:34:33;;;;;;;6.80;2.63;;;15.70;93.10;;;;;;7397323;19;19918;-72
2023/03/26 04:37:01;;;;;;;7.72;2.67;;;15.60;93.30;;;;;;7400197;19;19934;-73
2023/03/26 04:39:28;;;;;;;6.90;2.55;;;15.60;93.30;;;;;;7401738;19;19970;-72
2023/03/26 04:41:55;;;;;;;6.50;2.22;;;15.60;93.40;;;;;;7399329;19;19918;-72
2023/03/26 04:44:21;;;;;;;;;;;15.60;93.50;;;;;;7403947;19;19910;-72
2023/03/26 04:46:51;;;;;;;5.70;2.17;;;15.60;93.50;;;;;;7404356;19;19939;-73
2023/03/26 04:49:18;;;;;;;6.95;2.40;;;15.60;93.50;;;;;;7403237;19;19914;-72
2023/03/26 04:51:45;;;;;;;6.22;2.28;;;15.60;93.50;;;;;;7404799;19;20360;-74
2023/03/26 04:54:13;;;;;;;7.45;2.50;;;15.60;93.40;;;;;;7402850;19;20557;-73
2023/03/26 04:57:02;;;;;;;7.47;2.15;;;15.60;93.50;;;;;;7406744;19;20017;-73
2023/03/26 04:59:33;;;;;;;5.70;2.60;;;15.50;93.60;;;;;;7403863;19;19934;-73
2023/03/26 05:02:00;;;;;;;6.40;2.20;;;15.40;93.70;;;;;;7408141;19;19947;-73
2023/03/26 05:04:30;;;;;;;7.90;2.40;;;15.50;93.70;;;;;;7404730;19;19918;-73
2023/03/26 05:06:57;;;;;;;7.20;2.50;;;15.40;93.80;;;;;;7407475;19;21561;-72
2023/03/26 05:09:26;;;;;;;7.50;2.67;;;15.50;93.90;;;;;;7402691;19;21061;-73
2023/03/26 05:11:52;;;;;;;6.00;2.30;;;15.50;93.80;;;;;;7403670;19;19915;-73
2023/03/26 05:14:18;;;;;;;7.50;2.70;;;15.50;93.70;;;;;;7406204;19;20332;-72
2023/03/26 05:16:46;;;;;;;6.85;2.40;;;15.50;93.80;;;;;;7404808;19;19926;-72
2023/03/26 05:19:13;;;;;;;8.43;3.00;;;15.50;93.70;;;;;;7404864;19;19922;-72
2023/03/26 05:21:38;;;;;;;4.43;2.30;;;15.50;93.80;;;;;;7406030;19;19906;-72
2023/03/26 05:24:05;;;;;;;6.90;2.67;;;15.50;93.90;;;;;;7404904;19;20370;-72
2023/03/26 05:26:32;;;;;;;7.00;2.50;;;15.50;93.90;;;;;;7404379;19;19920;-72
2023/03/26 05:28:58;;;;;;;5.80;2.58;;;15.50;93.80;;;;;;7404000;19;19915;-72
2023/03/26 05:31:25;;;;;;;5.20;2.40;;;15.50;93.80;;;;;;7403414;19;19915;-72
2023/03/26 05:33:52;;;;;;;6.82;2.35;;;15.60;93.70;;;;;;7407665;19;20319;-72
2023/03/26 05:36:21;;;;;;;7.90;2.72;;;15.50;93.70;;;;;;7400898;19;20240;-73
2023/03/26 05:38:48;;;;;;;6.95;2.70;;;15.50;93.70;;;;;;7406556;19;19925;-72
2023/03/26 05:41:15;;;;;;;8.02;2.72;;;15.60;93.70;;;;;;7373940;19;20654;-72
2023/03/26 05:43:42;;;;;;;7.15;2.72;;;15.60;93.70;;;;;;7403094;19;19931;-71
2023/03/26 05:46:08;;;;;;;6.55;2.47;;;15.70;93.60;;;;;;7380488;19;19925;-72
2023/03/26 05:48:34;;;;;;;7.40;2.83;;;15.80;93.30;;;;;;7406233;19;19998;-72
2023/03/26 05:51:00;;;;;;;6.72;2.17;;;15.80;93.30;;;;;;7408408;19;19922;-73
2023/03/26 05:53:26;;;;;;;7.80;2.40;;;15.80;93.30;;;;;;7402682;19;19990;-71
2023/03/26 05:55:58;;;;;;;5.45;2.53;;;15.90;93.00;;;;;;7407233;19;19950;-73
2023/03/26 05:58:29;;;;;;;9.15;2.70;;;15.90;92.90;;;;;;7401373;19;19918;-72
2023/03/26 06:01:04;;;;;;;8.20;2.63;;;15.80;93.00;;;;;;7407636;19;20294;-72
2023/03/26 06:03:30;;;;;;;4.30;2.10;;;15.80;93.00;;;;;;7403793;19;19970;-72
2023/03/26 06:05:56;;;;;;;6.78;2.28;;;15.70;93.10;;;;;;7407409;19;19943;-72
2023/03/26 06:08:23;;;;;;;7.38;2.60;;;15.70;93.10;;;;;;7403665;19;20282;-73
2023/03/26 06:10:50;;;;;;;4.55;2.08;;;15.60;93.00;;;;;;7402200;19;20563;-72
2023/03/26 06:13:16;;;;;;;4.80;2.15;;;15.70;92.80;;;;;;7401767;19;19917;-71
2023/03/26 06:15:42;;;;;;;7.80;2.42;;;15.70;92.60;;;;;;7405329;19;19996;-73
2023/03/26 06:18:08;;;;;;;7.40;2.22;;;15.80;92.50;;;;;;7404942;19;20025;-73
2023/03/26 06:20:34;;;;;;;7.18;2.53;;;15.80;92.40;;;;;;7402772;19;19918;-72
2023/03/26 06:23:00;;;;;;;6.18;2.47;;;15.90;92.20;;;;;;7406029;19;19926;-72
2023/03/26 06:25:26;;;;;;;5.63;2.17;;;15.90;92.20;;;;;;7403801;19;19922;-73
2023/03/26 06:27:52;;;;;;;5.32;1.92;;;15.90;92.20;;;;;;7402800;19;20007;-73
2023/03/26 06:30:18;;;;;;;6.07;2.22;;;15.90;92.20;;;;;;7404679;19;19911;-72
2023/03/26 06:32:44;;;;;;;5.07;2.17;;;15.90;92.00;;;;;;7406877;19;19914;-73
2023/03/26 06:35:10;;;;;;;6.03;1.92;;;16.00;91.90;;;;;;7404208;19;19924;-72
2023/03/26 06:37:36;;;;;;;4.95;1.80;;;15.90;91.70;;;;;;7400375;19;19935;-73
2023/03/26 06:40:03;;;;;;;7.80;2.13;;;16.10;91.60;;;;;;7404635;19;19943;-72
2023/03/26 06:42:29;;;;;;;6.53;2.15;;;16.20;91.50;;;;;;7404328;19;20350;-74
2023/03/26 06:44:54;;;;;;;7.18;2.13;;;16.10;91.60;;;;;;7403642;19;19926;-74
2023/03/26 06:47:20;;;;;;;9.35;2.28;;;16.10;91.70;;;;;;7398197;19;19930;-73
2023/03/26 06:49:46;;;;;;;5.60;2.20;;;16.10;91.60;;;;;;7400847;19;19977;-73
2023/03/26 06:52:12;;;;;;;5.80;1.90;;;16.10;91.70;;;;;;7400561;19;19918;-73
2023/03/26 06:54:39;;;;;;;4.68;1.65;;;16.20;91.70;;;;;;7401013;19;20287;-75
2023/03/26 06:57:05;;;;;;;6.47;2.10;;;16.20;91.60;;;;;;7401231;19;19915;-73
2023/03/26 06:59:31;;;;;;;7.70;2.45;;;16.20;91.50;;;;;;7402015;19;20513;-73
2023/03/26 07:01:56;;;;;;;6.97;2.20;;;16.20;91.30;;;;;;7400139;19;19919;-73
2023/03/26 07:04:22;;;;;;;6.03;2.20;;;16.30;91.30;;;;;;7400000;19;19967;-75
2023/03/26 07:06:48;;;;;;;6.15;2.40;;;16.30;91.20;;;;;;7401850;19;19911;-73
2023/03/26 07:09:14;;;;;;;5.47;1.80;;;16.30;91.20;;;;;;7397863;19;20022;-73
2023/03/26 07:11:40;;;;;;;6.03;2.45;;;16.30;90.70;;;;;;7404168;19;19957;-74
2023/03/26 07:14:06;;;;;;;5.40;2.05;;;16.40;90.60;;;;;;7399898;19;19914;-74
2023/03/26 07:16:31;;;;;;;6.68;1.95;;;16.50;90.30;;;;;;7401024;19;19919;-75
2023/03/26 07:18:57;;;;;;;7.43;2.00;;;16.50;90.30;;;;;;7399496;19;19938;-75
2023/03/26 07:21:23;;;;;;;6.32;2.03;;;16.50;90.20;;;;;;7401420;19;19927;-74
2023/03/26 07:23:50;;;;;;;6.18;1.73;;;16.60;90.10;;;;;;7401347;19;20356;-76
2023/03/26 07:26:33;;;;;;;3.35;1.42;;;16.80;88.80;;;;;;7402290;19;19926;-75
2023/03/26 07:29:30;;;;;;;3.70;1.52;;;17.00;87.80;;;;;;7402257;19;19978;-74
2023/03/26 07:32:20;;;;;;;3.83;1.50;;;17.20;87.00;;;;;;7401498;19;20283;-76
2023/03/26 07:35:04;;;;;;;4.63;1.77;;;17.30;86.00;;;;;;7403623;19;19911;-76
2023/03/26 07:38:14;;;;;;;4.40;1.52;;;17.40;85.90;;;;;;7399260;19;19919;-75
2023/03/26 07:40:54;;;;;;;5.13;1.60;;;17.40;86.10;;;;;;7402266;19;19944;-75
2023/03/26 07:43:50;;;;;;;5.50;2.22;;;17.40;86.60;;;;;;7397774;19;19927;-74
2023/03/26 07:46:22;;;;;;;4.40;1.83;;;17.20;87.00;;;;;;7398878;19;19910;-75
2023/03/26 07:48:50;;;;;;;6.95;2.05;;;17.30;87.00;;;;;;7399403;19;19918;-74
2023/03/26 07:51:17;;;;;;;8.13;1.80;;;17.40;86.90;;;;;;7403353;19;20315;-74
2023/03/26 07:53:43;;;;;;;7.57;2.40;;;17.40;86.80;;;;;;7403226;19;19915;-74
2023/03/26 07:56:18;;;;;;;9.13;1.67;;;17.50;86.80;;;;;;7400064;19;20407;-75
2023/03/26 07:59:04;;;;;;;4.82;1.70;;;17.40;86.90;;;;;;7399519;19;20360;-75
2023/03/26 08:01:53;;;;;;;8.52;2.50;;;17.40;86.60;;;;;;7397878;19;19971;-74
2023/03/26 08:04:50;;;;;;;4.60;1.70;;;17.50;86.50;;;;;;7396898;19;19983;-75
2023/03/26 08:07:44;;;;;;;5.60;1.88;;;17.50;86.20;;;;;;7397769;19;19974;-74
2023/03/26 08:10:36;;;;;;;5.03;1.40;;;17.50;85.40;;;;;;7399473;19;19918;-75
2023/03/26 08:13:14;;;;;;;5.85;1.50;;;17.80;84.80;;;;;;7400085;19;19907;-75
2023/03/26 08:15:59;;;;;;;5.22;1.42;;;17.80;84.70;;;;;;7398314;19;19915;-75
2023/03/26 08:18:44;;;;;;;4.93;1.52;;;17.90;84.20;;;;;;7366168;19;19914;-74
2023/03/26 08:21:26;;;;;;;7.90;1.70;;;17.90;83.60;;;;;;7399089;19;19919;-74
2023/03/26 08:24:08;;;;;;;5.32;1.50;;;18.10;83.60;;;;;;7402102;19;19923;-74
2023/03/26 08:27:04;;;;;;;7.38;2.08;;;18.20;83.50;;;;;;7400815;19;19915;-74
2023/03/26 08:29:36;;;;;;;5.80;1.60;;;18.20;83.00;;;;;;7396411;19;20015;-75
2023/03/26 08:32:03;;;;;;;6.07;1.65;;;18.30;83.50;;;;;;7403852;19;19948;-75
2023/03/26 08:34:29;;;;;;;4.15;1.35;;;18.50;82.60;;;;;;7393756;19;20253;-75
2023/03/26 08:36:55;;;;;;;6.55;1.80;;;18.40;82.30;;;;;;7395885;19;19923;-75
2023/03/26 08:39:21;;;;;;;7.15;2.00;;;19.20;81.60;;;;;;7399962;19;19929;-74
2023/03/26 08:42:16;;;;;;;6.45;1.80;;;19.80;79.70;;;;;;7401626;19;20555;-74
2023/03/26 08:44:57;;;;;;;5.43;1.60;;;19.70;79.20;;;;;;7374622;19;19919;-74
2023/03/26 08:47:55;;;;;;;7.82;2.10;;;19.90;77.60;;;;;;7378641;19;20366;-77
2023/03/26 08:50:46;;;;;;;7.05;2.03;;;20.90;78.20;;;;;;7397940;19;19926;-75
2023/03/26 08:53:50;;;;;;;5.95;2.00;;;21.50;75.40;;;;;;7397833;19;19910;-76
2023/03/26 08:56:31;;;;;;;4.90;1.80;;;22.20;72.90;;;;;;7393939;19;19918;-74
2023/03/26 08:59:27;;;;;;;8.40;2.03;;;22.90;71.70;;;;;;7402261;19;20022;-76
2023/03/26 09:02:08;;;;;;;;;;;22.10;71.60;;;;;;7400020;19;19925;-75
2023/03/26 09:04:46;;;;;;;6.60;2.45;;;22.20;72.30;;;;;;7396393;19;19922;-73
2023/03/26 09:07:23;;;;;;;4.75;1.40;;;21.70;72.30;;;;;;7401070;19;19911;-73
2023/03/26 09:10:08;;;;;;;4.70;1.67;;;21.90;72.20;;;;;;7400421;19;20231;-74
2023/03/26 09:13:01;;;;;;;4.47;1.77;;;21.50;72.70;;;;;;7396997;19;19922;-75
2023/03/26 09:15:36;;;;;;;4.15;1.73;;;22.00;72.70;;;;;;7398755;19;19922;-74
2023/03/26 09:18:04;;;;;;;4.85;1.63;;;22.20;72.00;;;;;;7393151;19;19911;-74
2023/03/26 09:21:08;;;;;;;4.88;2.00;;;22.10;71.20;;;;;;7382967;19;19914;-75
2023/03/26 09:23:56;;;;;;;5.72;1.77;;;22.20;71.60;;;;;;7374144;19;20382;-75
2023/03/26 09:26:24;;;;;;;3.70;1.85;;;21.10;73.50;;;;;;7367975;19;21071;-75
2023/03/26 09:29:02;;;;;;;6.25;1.75;;;20.30;74.50;;;;;;7396295;19;19970;-75
2023/03/26 09:31:28;;;;;;;;;;;20.60;74.90;;;;;;7389385;19;19936;-75
2023/03/26 09:33:59;;;;;;;3.83;1.35;;;20.90;74.20;;;;;;7404494;19;19919;-74
2023/03/26 09:36:31;;;;;;;4.05;1.65;;;20.80;74.60;;;;;;7394826;19;19925;-74
2023/03/26 09:39:28;;;;;;;5.18;1.73;;;21.10;73.40;;;;;;7403208;19;20493;-73
2023/03/26 09:42:06;;;;;;;6.00;1.70;;;21.10;73.60;;;;;;7401724;19;19918;-72
2023/03/26 09:44:35;;;;;;;4.75;1.63;;;21.10;73.70;;;;;;7402079;19;19911;-74
2023/03/26 09:47:13;;;;;;;7.40;1.73;;;21.80;72.70;;;;;;7367461;19;19911;-74
2023/03/26 09:49:39;;;;;;;4.88;1.77;;;21.20;72.90;;;;;;7401529;19;19922;-74
2023/03/26 09:52:15;;;;;;;3.65;1.55;;;22.40;71.90;;;;;;7403642;19;19915;-75
2023/03/26 09:54:59;;;;;;;4.97;1.73;;;22.40;70.70;;;;;;7406468;19;19934;-74
2023/03/26 09:58:15;;;;;;;6.07;1.63;;;24.00;68.30;;;;;;7404721;19;20605;-74
2023/03/26 10:00:59;;;;;;;5.70;1.60;;;25.00;66.60;;;;;;7405565;19;19915;-74
2023/03/26 10:03:44;;;;;;;5.43;1.80;;;24.30;66.60;;;;;;7406808;19;19914;-75
2023/03/26 10:06:32;;;;;;;5.18;1.65;;;24.30;66.20;;;;;;7407429;19;19918;-74
2023/03/26 10:09:13;;;;;;;4.90;1.70;;;23.70;66.80;;;;;;7410510;19;20442;-74
2023/03/26 10:11:54;;;;;;;5.20;1.45;;;22.60;68.90;;;;;;7321588;19;20285;-74
2023/03/26 10:14:47;;;;;;;3.15;1.10;;;22.70;69.00;;;;;;7403404;19;20820;-75
2023/03/26 10:17:30;;;;;;;6.60;1.65;;;22.50;69.50;;;;;;7406761;19;19922;-74
2023/03/26 10:20:18;;;;;;;3.70;1.40;;;22.70;69.30;;;;;;7407406;19;19947;-74
2023/03/26 10:23:15;;;;;;;4.03;1.00;;;23.00;68.40;;;;;;7407458;19;19918;-74
2023/03/26 10:26:05;;;;;;;4.40;1.35;;;23.00;67.80;;;;;;7408187;19;19915;-75
2023/03/26 10:29:01;;;;;;;3.95;1.13;;;23.00;67.50;;;;;;7406079;19;19947;-75
2023/03/26 10:31:41;;;;;;;3.78;1.40;;;23.30;67.30;;;;;;7403406;19;20295;-75
2023/03/26 10:34:08;;;;;;;5.72;1.38;;;23.50;66.40;;;;;;7406185;19;19931;-74
2023/03/26 10:36:43;;;;;;;4.47;1.42;;;23.30;66.60;;;;;;7405153;19;19918;-73
2023/03/26 10:39:41;;;;;;;3.33;1.10;;;23.70;66.70;;;;;;7403366;19;19915;-73
2023/03/26 10:42:09;;;;;;;4.15;1.20;;;23.30;67.50;;;;;;7403004;19;19938;-73
2023/03/26 10:45:28;;;;;;;4.13;1.30;;;23.00;66.40;;;;;;7379530;19;19976;-74
2023/03/26 10:48:06;;;;;;;5.45;2.00;;;22.70;67.50;;;;;;7400186;19;20026;-74
2023/03/26 10:51:00;;;;;;;7.85;2.30;;;23.40;69.90;;;;;;7400045;19;19915;-74
2023/03/26 10:53:45;;;;;;;5.53;2.25;;;23.20;71.90;;;;;;7402691;19;20247;-73
2023/03/26 10:56:24;;;;;;;7.22;2.72;;;23.10;72.70;;;;;;7403672;19;19922;-75
2023/03/26 10:58:50;;;;;;;7.75;2.55;;;23.30;72.00;;;;;;7405182;19;19974;-74
2023/03/26 11:01:41;;;;;;;4.93;1.95;;;22.90;72.60;;;;;;7405326;19;19970;-74
2023/03/26 11:04:21;;;;;;;5.63;1.55;;;23.50;68.50;;;;;;7402177;19;20362;-74
2023/03/26 11:07:19;;;;;;;5.55;2.00;;;23.60;69.80;;;;;;7406044;19;20343;-74
2023/03/26 11:09:54;;;;;;;5.38;1.52;;;23.70;68.50;;;;;;7380490;19;19925;-73
2023/03/26 11:12:47;;;;;;;8.55;1.95;;;23.90;65.60;;;;;;7404100;19;20258;-73
2023/03/26 11:15:50;;;;;;;6.38;1.80;;;24.20;68.00;;;;;;7401037;19;20281;-74
2023/03/26 11:18:35;;;;;;;5.95;1.30;;;24.70;65.70;;;;;;7402156;19;19941;-72
2023/03/26 11:21:21;;;;;;;4.07;1.70;;;25.10;62.20;;;;;;7403262;19;19918;-73
2023/03/26 11:24:17;;;;;;;5.88;1.40;;;25.00;61.70;;;;;;7403187;19;20013;-74
2023/03/26 11:26:49;;;;;;;;;;;25.10;61.50;;;;;;7404960;19;19927;-73
2023/03/26 11:29:30;;;;;;;7.53;1.45;;;25.10;61.10;;;;;;7403240;19;19974;-75
2023/03/26 11:32:02;;;;;;;5.63;1.40;;;26.10;60.60;;;;;;7404761;19;19978;-74
2023/03/26 11:35:01;;;;;;;6.68;1.38;;;25.60;60.70;;;;;;7401528;19;19926;-74
2023/03/26 11:37:50;;;;;;;3.15;1.25;;;25.60;60.50;;;;;;7398176;19;19911;-73
2023/03/26 11:40:26;;;;;;;7.05;1.70;;;25.20;60.30;;;;;;7401791;19;20367;-74
2023/03/26 11:42:59;;;;;;;4.22;1.10;;;25.10;61.10;;;;;;7401838;19;20347;-73
2023/03/26 11:45:30;;;;;;;8.98;1.50;;;25.30;60.50;;;;;;7400623;19;19966;-74
2023/03/26 11:48:02;;;;;;;5.50;1.08;;;24.70;61.10;;;;;;7405873;19;19926;-74
2023/03/26 11:50:32;;;;;;;5.75;1.13;;;25.20;60.50;;;;;;7402349;19;19938;-74
2023/03/26 11:53:10;;;;;;;5.20;1.40;;;25.30;59.90;;;;;;7403952;19;19982;-73
2023/03/26 11:55:41;;;;;;;3.88;1.25;;;24.80;60.50;;;;;;7396513;19;20252;-74
2023/03/26 11:58:24;;;;;;;5.40;1.70;;;26.10;59.30;;;;;;7402621;19;20308;-73
2023/03/26 12:00:53;;;;;;;9.70;1.25;;;25.60;59.10;;;;;;7405569;19;20455;-73
2023/03/26 12:03:19;;;;;;;5.13;1.30;;;26.30;58.10;;;;;;7402519;19;19914;-74
2023/03/26 12:05:58;;;;;;;3.10;1.25;;;25.50;57.70;;;;;;7405120;19;19914;-76
2023/03/26 12:08:36;;;;;;;6.75;1.30;;;24.70;58.60;;;;;;7401896;19;19922;-73
2023/03/26 12:11:11;;;;;;;4.97;1.40;;;25.50;58.70;;;;;;7401513;19;19914;-74
2023/03/26 12:13:49;;;;;;;6.97;1.67;;;25.90;58.70;;;;;;7403462;19;19922;-74
2023/03/26 12:16:18;;;;;;;3.10;1.00;;;26.10;58.30;;;;;;7403338;19;19933;-73
2023/03/26 12:18:46;;;;;;;5.13;1.67;;;25.00;57.80;;;;;;7402559;19;19922;-74
2023/03/26 12:21:18;;;;;;;4.03;1.50;;;25.10;58.60;;;;;;7402206;19;19926;-74
2023/03/26 12:23:55;;;;;;;4.78;1.42;;;25.40;58.40;;;;;;7404866;19;19910;-74
2023/03/26 12:26:32;;;;;;;5.00;1.70;;;25.40;58.40;;;;;;7401711;19;19923;-74
2023/03/26 12:29:11;;;;;;;2.70;1.10;;;25.00;58.10;;;;;;7401903;19;20335;-74
2023/03/26 12:32:02;;;;;;;6.15;1.65;;;24.60;57.50;;;;;;7400928;19;20268;-74
2023/03/26 12:34:37;;;;;;;4.68;1.13;;;25.30;57.50;;;;;;7403002;19;19911;-75
2023/03/26 12:37:05;;;;;;;4.10;1.83;;;25.30;57.70;;;;;;7402790;19;19915;-74
2023/03/26 12:39:38;;;;;;;3.70;1.33;;;25.70;57.40;;;;;;7405523;19;20331;-74
2023/03/26 12:42:13;;;;;;;5.78;1.50;;;26.30;56.30;;;;;;7402209;19;19921;-73
2023/03/26 12:44:50;;;;;;;9.38;1.55;;;25.40;56.80;;;;;;7401046;19;20569;-73
2023/03/26 12:47:27;;;;;;;5.72;1.23;;;26.10;56.60;;;;;;7400757;19;19923;-73
2023/03/26 12:49:54;;;;;;;4.25;1.30;;;25.80;55.10;;;;;;7398924;19;19914;-74
2023/03/26 12:52:32;;;;;;;3.15;1.50;;;25.70;54.40;;;;;;7398830;19;19918;-74
2023/03/26 12:55:16;;;;;;;;;;;26.10;54.40;;;;;;7405607;19;19911;-73
2023/03/26 12:58:27;;;;;;;2.55;1.50;;;26.00;54.40;;;;;;7401329;19;19922;-74
2023/03/26 13:01:02;;;;;;;3.92;1.20;;;25.60;54.40;;;;;;7367008;19;19919;-75
2023/03/26 13:03:40;;;;;;;2.65;1.13;;;25.00;54.90;;;;;;7400343;19;20517;-73
2023/03/26 13:06:25;;;;;;;3.97;1.20;;;24.70;56.00;;;;;;7399425;19;19931;-73
2023/03/26 13:09:28;;;;;;;5.57;1.10;;;24.90;54.50;;;;;;7405927;19;19915;-73
2023/03/26 13:12:08;;;;;;;2.70;0.82;;;25.70;52.80;;;;;;7403179;19;19918;-73
2023/03/26 13:14:41;;;;;;;3.10;1.20;;;26.10;51.80;;;;;;7405643;19;20339;-73
2023/03/26 13:17:31;;;;;;;3.88;1.30;;;25.80;51.50;;;;;;7407800;19;19918;-74
2023/03/26 13:20:21;;;;;;;4.63;1.33;;;25.90;51.50;;;;;;7407690;19;19966;-74
2023/03/26 13:23:03;;;;;;;5.75;1.20;;;25.50;51.00;;;;;;7405077;19;20547;-73